sensor_id;sensor_type;location;lat;lon;timestamp;P1;durP1;ratioP1;P2;durP2;ratioP2
7446;SDS011;3765;47.962;7.952;2023-04-12T00:00:05;8.77;;;2.17;;
7446;SDS011;3765;47.962;7.952;2023-04-12T00:02:37;11.73;;;2.70;;
7446;SDS011;3765;47.962;7.952;2023-04-12T00:05:07;9.67;;;2.20;;
7446;SDS011;3765;47.962;7.952;2023-04-12T00:07:37;11.87;;;2.90;;
7446;SDS011;3765;47.962;7.952;2023-04-12T00:10:08;9.83;;;2.23;;
7446;SDS011;3765;47.962;7.952;2023-04-12T00:12:36;7.97;;;1.80;;
7446;SDS011;3765;47.962;7.952;2023-04-12T00:15:08;8.00;;;2.17;;
7446;SDS011;3765;47.962;7.952;2023-04-12T00:17:36;8.00;;;2.20;;
7446;SDS011;3765;47.962;7.952;2023-04-12T00:20:05;13.20;;;2.20;;
7446;SDS011;3765;47.962;7.952;2023-04-12T00:22:37;7.20;;;1.87;;
7446;SDS011;3765;47.962;7.952;2023-04-12T00:25:07;10.20;;;2.23;;
7446;SDS011;3765;47.962;7.952;2023-04-12T00:27:35;7.30;;;1.80;;
7446;SDS011;3765;47.962;7.952;2023-04-12T00:30:04;8.57;;;1.80;;
7446;SDS011;3765;47.962;7.952;2023-04-12T00:32:35;10.60;;;2.87;;
7446;SDS011;3765;47.962;7.952;2023-04-12T00:35:03;9.43;;;1.90;;
7446;SDS011;3765;47.962;7.952;2023-04-12T00:37:32;21.00;;;2.50;;
7446;SDS011;3765;47.962;7.952;2023-04-12T00:40:01;6.63;;;1.60;;
7446;SDS011;3765;47.962;7.952;2023-04-12T00:42:32;9.10;;;1.90;;
7446;SDS011;3765;47.962;7.952;2023-04-12T00:45:00;10.80;;;2.23;;
7446;SDS011;3765;47.962;7.952;2023-04-12T00:47:28;11.00;;;1.60;;
7446;SDS011;3765;47.962;7.952;2023-04-12T00:49:59;8.53;;;1.80;;
7446;SDS011;3765;47.962;7.952;2023-04-12T00:52:28;8.40;;;2.10;;
7446;SDS011;3765;47.962;7.952;2023-04-12T00:54:59;9.57;;;1.97;;
7446;SDS011;3765;47.962;7.952;2023-04-12T00:57:30;9.70;;;2.17;;
7446;SDS011;3765;47.962;7.952;2023-04-12T01:00:02;9.23;;;1.87;;
7446;SDS011;3765;47.962;7.952;2023-04-12T01:02:31;12.77;;;2.07;;
7446;SDS011;3765;47.962;7.952;2023-04-12T01:05:01;8.47;;;1.80;;
7446;SDS011;3765;47.962;7.952;2023-04-12T01:07:34;6.93;;;2.20;;
7446;SDS011;3765;47.962;7.952;2023-04-12T01:10:12;7.30;;;1.83;;
7446;SDS011;3765;47.962;7.952;2023-04-12T01:13:04;7.33;;;1.70;;
7446;SDS011;3765;47.962;7.952;2023-04-12T01:15:43;6.63;;;1.57;;
7446;SDS011;3765;47.962;7.952;2023-04-12T01:18:20;6.20;;;1.53;;
7446;SDS011;3765;47.962;7.952;2023-04-12T01:20:53;6.70;;;1.60;;
7446;SDS011;3765;47.962;7.952;2023-04-12T01:23:33;6.67;;;1.70;;
7446;SDS011;3765;47.962;7.952;2023-04-12T01:26:18;6.53;;;1.40;;
7446;SDS011;3765;47.962;7.952;2023-04-12T01:29:08;7.37;;;1.60;;
7446;SDS011;3765;47.962;7.952;2023-04-12T01:31:38;7.23;;;1.83;;
7446;SDS011;3765;47.962;7.952;2023-04-12T01:34:08;10.13;;;2.37;;
7446;SDS011;3765;47.962;7.952;2023-04-12T01:36:38;6.60;;;1.83;;
7446;SDS011;3765;47.962;7.952;2023-04-12T01:39:09;20.50;;;2.00;;
7446;SDS011;3765;47.962;7.952;2023-04-12T01:41:38;6.90;;;1.80;;
7446;SDS011;3765;47.962;7.952;2023-04-12T01:44:12;7.73;;;2.07;;
7446;SDS011;3765;47.962;7.952;2023-04-12T01:46:41;8.23;;;2.00;;
7446;SDS011;3765;47.962;7.952;2023-04-12T01:49:12;7.50;;;1.73;;
7446;SDS011;3765;47.962;7.952;2023-04-12T01:51:45;6.10;;;1.43;;
7446;SDS011;3765;47.962;7.952;2023-04-12T01:54:18;6.60;;;1.70;;
7446;SDS011;3765;47.962;7.952;2023-04-12T01:56:53;8.63;;;2.30;;
7446;SDS011;3765;47.962;7.952;2023-04-12T01:59:27;7.33;;;1.90;;
7446;SDS011;3765;47.962;7.952;2023-04-12T02:01:58;6.60;;;1.83;;
7446;SDS011;3765;47.962;7.952;2023-04-12T02:04:28;7.17;;;1.93;;
7446;SDS011;3765;47.962;7.952;2023-04-12T02:06:57;8.37;;;2.20;;
7446;SDS011;3765;47.962;7.952;2023-04-12T02:09:26;6.67;;;1.83;;
7446;SDS011;3765;47.962;7.952;2023-04-12T02:11:54;7.10;;;1.80;;
7446;SDS011;3765;47.962;7.952;2023-04-12T02:14:23;9.00;;;2.10;;
7446;SDS011;3765;47.962;7.952;2023-04-12T02:16:53;7.17;;;1.87;;
7446;SDS011;3765;47.962;7.952;2023-04-12T02:19:23;12.33;;;2.00;;
7446;SDS011;3765;47.962;7.952;2023-04-12T02:21:52;7.43;;;1.80;;
7446;SDS011;3765;47.962;7.952;2023-04-12T02:24:20;7.63;;;2.10;;
7446;SDS011;3765;47.962;7.952;2023-04-12T02:26:48;7.60;;;2.23;;
7446;SDS011;3765;47.962;7.952;2023-04-12T02:29:17;8.83;;;2.20;;
7446;SDS011;3765;47.962;7.952;2023-04-12T02:31:45;12.10;;;2.30;;
7446;SDS011;3765;47.962;7.952;2023-04-12T02:34:15;8.20;;;2.27;;
7446;SDS011;3765;47.962;7.952;2023-04-12T02:36:45;8.10;;;2.17;;
7446;SDS011;3765;47.962;7.952;2023-04-12T02:39:14;10.47;;;2.13;;
7446;SDS011;3765;47.962;7.952;2023-04-12T02:41:44;7.67;;;2.30;;
7446;SDS011;3765;47.962;7.952;2023-04-12T02:44:12;7.37;;;2.17;;
7446;SDS011;3765;47.962;7.952;2023-04-12T02:46:40;10.07;;;2.60;;
7446;SDS011;3765;47.962;7.952;2023-04-12T02:49:08;7.80;;;1.97;;
7446;SDS011;3765;47.962;7.952;2023-04-12T02:51:38;9.33;;;1.97;;
7446;SDS011;3765;47.962;7.952;2023-04-12T02:54:07;8.70;;;2.20;;
7446;SDS011;3765;47.962;7.952;2023-04-12T02:56:35;8.80;;;2.07;;
7446;SDS011;3765;47.962;7.952;2023-04-12T02:59:03;6.63;;;1.70;;
7446;SDS011;3765;47.962;7.952;2023-04-12T03:01:32;9.70;;;2.00;;
7446;SDS011;3765;47.962;7.952;2023-04-12T03:04:00;9.57;;;2.60;;
7446;SDS011;3765;47.962;7.952;2023-04-12T03:06:28;10.87;;;2.30;;
7446;SDS011;3765;47.962;7.952;2023-04-12T03:08:58;10.00;;;2.70;;
7446;SDS011;3765;47.962;7.952;2023-04-12T03:11:26;16.70;;;3.10;;
7446;SDS011;3765;47.962;7.952;2023-04-12T03:13:55;7.83;;;2.40;;
7446;SDS011;3765;47.962;7.952;2023-04-12T03:16:24;8.60;;;2.20;;
7446;SDS011;3765;47.962;7.952;2023-04-12T03:18:55;9.87;;;2.03;;
7446;SDS011;3765;47.962;7.952;2023-04-12T03:21:23;12.33;;;1.93;;
7446;SDS011;3765;47.962;7.952;2023-04-12T03:23:53;9.20;;;2.17;;
7446;SDS011;3765;47.962;7.952;2023-04-12T03:26:23;8.33;;;2.50;;
7446;SDS011;3765;47.962;7.952;2023-04-12T03:28:54;11.23;;;2.50;;
7446;SDS011;3765;47.962;7.952;2023-04-12T03:31:25;15.70;;;2.43;;
7446;SDS011;3765;47.962;7.952;2023-04-12T03:33:53;11.13;;;2.73;;
7446;SDS011;3765;47.962;7.952;2023-04-12T03:36:22;8.83;;;2.47;;
7446;SDS011;3765;47.962;7.952;2023-04-12T03:38:50;21.30;;;3.20;;
7446;SDS011;3765;47.962;7.952;2023-04-12T03:41:20;11.17;;;2.53;;
7446;SDS011;3765;47.962;7.952;2023-04-12T03:43:50;8.40;;;2.17;;
7446;SDS011;3765;47.962;7.952;2023-04-12T03:46:19;9.67;;;2.50;;
7446;SDS011;3765;47.962;7.952;2023-04-12T03:48:48;8.77;;;2.37;;
7446;SDS011;3765;47.962;7.952;2023-04-12T03:51:17;7.30;;;1.90;;
7446;SDS011;3765;47.962;7.952;2023-04-12T03:53:47;7.33;;;1.70;;
7446;SDS011;3765;47.962;7.952;2023-04-12T03:56:15;9.10;;;2.50;;
7446;SDS011;3765;47.962;7.952;2023-04-12T03:58:45;9.10;;;2.47;;
7446;SDS011;3765;47.962;7.952;2023-04-12T04:01:15;10.63;;;2.53;;
7446;SDS011;3765;47.962;7.952;2023-04-12T04:03:43;9.53;;;2.30;;
7446;SDS011;3765;47.962;7.952;2023-04-12T04:06:12;10.70;;;2.40;;
7446;SDS011;3765;47.962;7.952;2023-04-12T04:08:40;9.80;;;2.37;;
7446;SDS011;3765;47.962;7.952;2023-04-12T04:11:10;9.40;;;2.40;;
7446;SDS011;3765;47.962;7.952;2023-04-12T04:13:39;10.93;;;2.20;;
7446;SDS011;3765;47.962;7.952;2023-04-12T04:16:07;10.77;;;2.53;;
7446;SDS011;3765;47.962;7.952;2023-04-12T04:18:37;9.33;;;2.40;;
7446;SDS011;3765;47.962;7.952;2023-04-12T04:21:06;10.67;;;2.67;;
7446;SDS011;3765;47.962;7.952;2023-04-12T04:23:34;10.93;;;2.57;;
7446;SDS011;3765;47.962;7.952;2023-04-12T04:26:05;11.83;;;2.67;;
7446;SDS011;3765;47.962;7.952;2023-04-12T04:28:35;9.37;;;2.77;;
7446;SDS011;3765;47.962;7.952;2023-04-12T04:31:04;12.00;;;2.80;;
7446;SDS011;3765;47.962;7.952;2023-04-12T04:33:32;13.83;;;2.53;;
7446;SDS011;3765;47.962;7.952;2023-04-12T04:36:02;9.03;;;2.43;;
7446;SDS011;3765;47.962;7.952;2023-04-12T04:38:32;13.80;;;2.60;;
7446;SDS011;3765;47.962;7.952;2023-04-12T04:41:00;8.67;;;2.43;;
7446;SDS011;3765;47.962;7.952;2023-04-12T04:43:29;11.77;;;3.10;;
7446;SDS011;3765;47.962;7.952;2023-04-12T04:45:59;13.60;;;3.60;;
7446;SDS011;3765;47.962;7.952;2023-04-12T04:48:27;10.97;;;3.40;;
7446;SDS011;3765;47.962;7.952;2023-04-12T04:50:56;12.53;;;3.60;;
7446;SDS011;3765;47.962;7.952;2023-04-12T04:53:27;9.60;;;3.30;;
7446;SDS011;3765;47.962;7.952;2023-04-12T04:55:56;11.83;;;2.70;;
7446;SDS011;3765;47.962;7.952;2023-04-12T04:58:26;14.10;;;3.00;;
7446;SDS011;3765;47.962;7.952;2023-04-12T05:00:55;10.20;;;2.93;;
7446;SDS011;3765;47.962;7.952;2023-04-12T05:03:25;8.90;;;2.57;;
7446;SDS011;3765;47.962;7.952;2023-04-12T05:05:56;11.07;;;2.90;;
7446;SDS011;3765;47.962;7.952;2023-04-12T05:08:24;12.80;;;4.30;;
7446;SDS011;3765;47.962;7.952;2023-04-12T05:10:55;16.43;;;3.80;;
7446;SDS011;3765;47.962;7.952;2023-04-12T05:13:23;10.20;;;3.70;;
7446;SDS011;3765;47.962;7.952;2023-04-12T05:15:52;10.30;;;3.27;;
7446;SDS011;3765;47.962;7.952;2023-04-12T05:18:20;17.67;;;3.10;;
7446;SDS011;3765;47.962;7.952;2023-04-12T05:20:48;9.90;;;3.00;;
7446;SDS011;3765;47.962;7.952;2023-04-12T05:23:16;16.43;;;3.20;;
7446;SDS011;3765;47.962;7.952;2023-04-12T05:25:44;13.50;;;3.73;;
7446;SDS011;3765;47.962;7.952;2023-04-12T05:28:15;44.13;;;8.13;;
7446;SDS011;3765;47.962;7.952;2023-04-12T05:30:43;16.10;;;4.50;;
7446;SDS011;3765;47.962;7.952;2023-04-12T05:33:12;10.67;;;3.30;;
7446;SDS011;3765;47.962;7.952;2023-04-12T05:35:41;23.67;;;3.97;;
7446;SDS011;3765;47.962;7.952;2023-04-12T05:38:09;31.23;;;8.57;;
7446;SDS011;3765;47.962;7.952;2023-04-12T05:40:37;13.00;;;3.93;;
7446;SDS011;3765;47.962;7.952;2023-04-12T05:43:07;8.23;;;2.90;;
7446;SDS011;3765;47.962;7.952;2023-04-12T05:45:39;11.43;;;2.97;;
7446;SDS011;3765;47.962;7.952;2023-04-12T05:48:08;12.07;;;3.20;;
7446;SDS011;3765;47.962;7.952;2023-04-12T05:50:36;13.57;;;2.97;;
7446;SDS011;3765;47.962;7.952;2023-04-12T05:53:04;15.17;;;3.20;;
7446;SDS011;3765;47.962;7.952;2023-04-12T05:55:33;10.13;;;3.13;;
7446;SDS011;3765;47.962;7.952;2023-04-12T05:58:03;9.00;;;2.77;;
7446;SDS011;3765;47.962;7.952;2023-04-12T06:00:31;12.27;;;2.97;;
7446;SDS011;3765;47.962;7.952;2023-04-12T06:03:01;10.60;;;3.07;;
7446;SDS011;3765;47.962;7.952;2023-04-12T06:05:30;11.30;;;3.10;;
7446;SDS011;3765;47.962;7.952;2023-04-12T06:08:00;11.27;;;3.20;;
7446;SDS011;3765;47.962;7.952;2023-04-12T06:10:30;11.07;;;3.73;;
7446;SDS011;3765;47.962;7.952;2023-04-12T06:12:59;9.13;;;3.00;;
7446;SDS011;3765;47.962;7.952;2023-04-12T06:15:27;9.83;;;3.30;;
7446;SDS011;3765;47.962;7.952;2023-04-12T06:17:57;11.70;;;4.47;;
7446;SDS011;3765;47.962;7.952;2023-04-12T06:20:27;11.10;;;3.40;;
7446;SDS011;3765;47.962;7.952;2023-04-12T06:22:55;10.80;;;3.40;;
7446;SDS011;3765;47.962;7.952;2023-04-12T06:25:23;13.10;;;3.80;;
7446;SDS011;3765;47.962;7.952;2023-04-12T06:27:51;10.50;;;3.90;;
7446;SDS011;3765;47.962;7.952;2023-04-12T06:30:20;18.13;;;7.50;;
7446;SDS011;3765;47.962;7.952;2023-04-12T06:32:48;13.60;;;4.03;;
7446;SDS011;3765;47.962;7.952;2023-04-12T06:35:16;10.90;;;5.10;;
7446;SDS011;3765;47.962;7.952;2023-04-12T06:37:47;14.43;;;4.30;;
7446;SDS011;3765;47.962;7.952;2023-04-12T06:40:15;11.27;;;3.73;;
7446;SDS011;3765;47.962;7.952;2023-04-12T06:42:43;17.90;;;8.10;;
7446;SDS011;3765;47.962;7.952;2023-04-12T06:45:11;12.70;;;5.97;;
7446;SDS011;3765;47.962;7.952;2023-04-12T06:47:39;18.93;;;4.33;;
7446;SDS011;3765;47.962;7.952;2023-04-12T06:50:08;10.63;;;3.80;;
7446;SDS011;3765;47.962;7.952;2023-04-12T06:52:36;13.10;;;3.73;;
7446;SDS011;3765;47.962;7.952;2023-04-12T06:55:07;12.10;;;4.10;;
7446;SDS011;3765;47.962;7.952;2023-04-12T06:57:35;11.93;;;4.50;;
7446;SDS011;3765;47.962;7.952;2023-04-12T07:00:04;13.03;;;3.87;;
7446;SDS011;3765;47.962;7.952;2023-04-12T07:02:33;14.63;;;4.13;;
7446;SDS011;3765;47.962;7.952;2023-04-12T07:05:01;16.53;;;4.50;;
7446;SDS011;3765;47.962;7.952;2023-04-12T07:07:30;10.70;;;3.40;;
7446;SDS011;3765;47.962;7.952;2023-04-12T07:09:58;17.00;;;3.80;;
7446;SDS011;3765;47.962;7.952;2023-04-12T07:12:29;10.73;;;2.90;;
7446;SDS011;3765;47.962;7.952;2023-04-12T07:14:58;13.10;;;3.10;;
7446;SDS011;3765;47.962;7.952;2023-04-12T07:17:26;17.60;;;3.50;;
7446;SDS011;3765;47.962;7.952;2023-04-12T07:19:54;16.03;;;3.57;;
7446;SDS011;3765;47.962;7.952;2023-04-12T07:22:22;12.53;;;3.10;;
7446;SDS011;3765;47.962;7.952;2023-04-12T07:24:51;12.40;;;3.17;;
7446;SDS011;3765;47.962;7.952;2023-04-12T07:27:19;10.23;;;2.53;;
7446;SDS011;3765;47.962;7.952;2023-04-12T07:29:48;11.87;;;2.50;;
7446;SDS011;3765;47.962;7.952;2023-04-12T07:32:18;12.10;;;3.17;;
7446;SDS011;3765;47.962;7.952;2023-04-12T07:34:46;13.77;;;3.00;;
7446;SDS011;3765;47.962;7.952;2023-04-12T07:37:14;7.43;;;1.93;;
7446;SDS011;3765;47.962;7.952;2023-04-12T07:39:43;9.40;;;2.47;;
7446;SDS011;3765;47.962;7.952;2023-04-12T07:42:11;11.33;;;1.93;;
7446;SDS011;3765;47.962;7.952;2023-04-12T07:44:39;8.03;;;1.90;;
7446;SDS011;3765;47.962;7.952;2023-04-12T07:47:08;9.10;;;2.37;;
7446;SDS011;3765;47.962;7.952;2023-04-12T07:49:37;8.93;;;2.10;;
7446;SDS011;3765;47.962;7.952;2023-04-12T07:52:05;12.53;;;4.37;;
7446;SDS011;3765;47.962;7.952;2023-04-12T07:54:33;17.20;;;8.50;;
7446;SDS011;3765;47.962;7.952;2023-04-12T07:57:01;25.17;;;11.90;;
7446;SDS011;3765;47.962;7.952;2023-04-12T07:59:30;10.37;;;3.40;;
7446;SDS011;3765;47.962;7.952;2023-04-12T08:01:59;39.53;;;21.40;;
7446;SDS011;3765;47.962;7.952;2023-04-12T08:04:30;26.67;;;11.50;;
7446;SDS011;3765;47.962;7.952;2023-04-12T08:06:58;52.43;;;25.43;;
7446;SDS011;3765;47.962;7.952;2023-04-12T08:09:26;99.20;;;40.27;;
7446;SDS011;3765;47.962;7.952;2023-04-12T08:11:55;120.60;;;61.60;;
7446;SDS011;3765;47.962;7.952;2023-04-12T08:14:23;121.77;;;57.97;;
7446;SDS011;3765;47.962;7.952;2023-04-12T08:16:51;59.53;;;26.13;;
7446;SDS011;3765;47.962;7.952;2023-04-12T08:19:20;32.67;;;13.27;;
7446;SDS011;3765;47.962;7.952;2023-04-12T08:21:49;49.90;;;27.67;;
7446;SDS011;3765;47.962;7.952;2023-04-12T08:24:17;89.67;;;41.50;;
7446;SDS011;3765;47.962;7.952;2023-04-12T08:26:46;82.97;;;41.83;;
7446;SDS011;3765;47.962;7.952;2023-04-12T08:29:14;95.27;;;57.80;;
7446;SDS011;3765;47.962;7.952;2023-04-12T08:31:42;35.73;;;19.80;;
7446;SDS011;3765;47.962;7.952;2023-04-12T08:34:11;82.97;;;47.50;;
7446;SDS011;3765;47.962;7.952;2023-04-12T08:36:39;51.00;;;27.67;;
7446;SDS011;3765;47.962;7.952;2023-04-12T08:39:08;10.77;;;3.37;;
7446;SDS011;3765;47.962;7.952;2023-04-12T08:41:37;54.17;;;27.80;;
7446;SDS011;3765;47.962;7.952;2023-04-12T08:44:06;17.77;;;8.00;;
7446;SDS011;3765;47.962;7.952;2023-04-12T08:46:34;45.10;;;23.93;;
7446;SDS011;3765;47.962;7.952;2023-04-12T08:49:03;21.60;;;13.13;;
7446;SDS011;3765;47.962;7.952;2023-04-12T08:51:31;29.93;;;14.97;;
7446;SDS011;3765;47.962;7.952;2023-04-12T08:54:01;12.40;;;4.40;;
7446;SDS011;3765;47.962;7.952;2023-04-12T08:56:32;16.07;;;5.40;;
7446;SDS011;3765;47.962;7.952;2023-04-12T08:59:01;28.50;;;14.03;;
7446;SDS011;3765;47.962;7.952;2023-04-12T09:01:29;19.87;;;10.20;;
7446;SDS011;3765;47.962;7.952;2023-04-12T09:03:57;25.87;;;12.37;;
7446;SDS011;3765;47.962;7.952;2023-04-12T09:06:26;18.97;;;8.60;;
7446;SDS011;3765;47.962;7.952;2023-04-12T09:08:54;29.20;;;14.73;;
7446;SDS011;3765;47.962;7.952;2023-04-12T09:11:25;13.57;;;4.50;;
7446;SDS011;3765;47.962;7.952;2023-04-12T09:13:55;26.43;;;12.37;;
7446;SDS011;3765;47.962;7.952;2023-04-12T09:16:34;19.30;;;6.97;;
7446;SDS011;3765;47.962;7.952;2023-04-12T09:19:03;18.40;;;8.77;;
7446;SDS011;3765;47.962;7.952;2023-04-12T09:21:32;14.90;;;5.93;;
7446;SDS011;3765;47.962;7.952;2023-04-12T09:24:01;23.40;;;10.60;;
7446;SDS011;3765;47.962;7.952;2023-04-12T09:26:31;24.27;;;13.07;;
7446;SDS011;3765;47.962;7.952;2023-04-12T09:29:01;18.30;;;8.63;;
7446;SDS011;3765;47.962;7.952;2023-04-12T09:31:29;15.30;;;5.00;;
7446;SDS011;3765;47.962;7.952;2023-04-12T09:34:05;28.47;;;9.07;;
7446;SDS011;3765;47.962;7.952;2023-04-12T09:36:37;21.10;;;9.27;;
7446;SDS011;3765;47.962;7.952;2023-04-12T09:39:06;21.40;;;8.80;;
7446;SDS011;3765;47.962;7.952;2023-04-12T09:41:34;12.43;;;2.73;;
7446;SDS011;3765;47.962;7.952;2023-04-12T09:44:04;15.13;;;6.20;;
7446;SDS011;3765;47.962;7.952;2023-04-12T09:46:32;15.33;;;7.00;;
7446;SDS011;3765;47.962;7.952;2023-04-12T09:49:02;21.90;;;10.57;;
7446;SDS011;3765;47.962;7.952;2023-04-12T09:51:31;27.77;;;14.37;;
7446;SDS011;3765;47.962;7.952;2023-04-12T09:54:02;28.33;;;8.00;;
7446;SDS011;3765;47.962;7.952;2023-04-12T09:56:33;27.60;;;13.63;;
7446;SDS011;3765;47.962;7.952;2023-04-12T09:59:05;13.40;;;4.90;;
7446;SDS011;3765;47.962;7.952;2023-04-12T10:01:34;20.70;;;11.90;;
7446;SDS011;3765;47.962;7.952;2023-04-12T10:04:05;9.10;;;2.50;;
7446;SDS011;3765;47.962;7.952;2023-04-12T10:06:35;17.67;;;5.80;;
7446;SDS011;3765;47.962;7.952;2023-04-12T10:09:04;12.00;;;3.80;;
7446;SDS011;3765;47.962;7.952;2023-04-12T10:11:34;19.50;;;9.93;;
7446;SDS011;3765;47.962;7.952;2023-04-12T10:14:08;14.03;;;6.37;;
7446;SDS011;3765;47.962;7.952;2023-04-12T10:16:37;6.63;;;2.03;;
7446;SDS011;3765;47.962;7.952;2023-04-12T10:19:07;10.77;;;2.30;;
7446;SDS011;3765;47.962;7.952;2023-04-12T10:21:36;9.33;;;2.67;;
7446;SDS011;3765;47.962;7.952;2023-04-12T10:24:05;7.80;;;2.60;;
7446;SDS011;3765;47.962;7.952;2023-04-12T10:26:33;6.83;;;1.80;;
7446;SDS011;3765;47.962;7.952;2023-04-12T10:31:50;10.57;;;2.43;;
7446;SDS011;3765;47.962;7.952;2023-04-12T10:34:22;8.73;;;2.50;;
7446;SDS011;3765;47.962;7.952;2023-04-12T10:36:53;12.23;;;2.90;;
7446;SDS011;3765;47.962;7.952;2023-04-12T10:39:36;10.57;;;2.50;;
7446;SDS011;3765;47.962;7.952;2023-04-12T10:42:15;10.90;;;4.57;;
7446;SDS011;3765;47.962;7.952;2023-04-12T10:44:50;10.47;;;3.50;;
7446;SDS011;3765;47.962;7.952;2023-04-12T10:50:24;9.93;;;3.80;;
7446;SDS011;3765;47.962;7.952;2023-04-12T10:55:51;10.07;;;3.33;;
7446;SDS011;3765;47.962;7.952;2023-04-12T11:01:25;9.63;;;4.47;;
7446;SDS011;3765;47.962;7.952;2023-04-12T11:04:04;24.27;;;14.07;;
7446;SDS011;3765;47.962;7.952;2023-04-12T11:06:40;13.73;;;5.23;;
7446;SDS011;3765;47.962;7.952;2023-04-12T11:09:25;17.80;;;8.30;;
7446;SDS011;3765;47.962;7.952;2023-04-12T11:11:55;11.50;;;3.60;;
7446;SDS011;3765;47.962;7.952;2023-04-12T11:14:26;8.03;;;2.20;;
7446;SDS011;3765;47.962;7.952;2023-04-12T11:19:52;8.27;;;2.07;;
7446;SDS011;3765;47.962;7.952;2023-04-12T11:22:26;6.23;;;1.80;;
7446;SDS011;3765;47.962;7.952;2023-04-12T11:24:56;6.53;;;1.33;;
7446;SDS011;3765;47.962;7.952;2023-04-12T11:27:26;6.00;;;1.67;;
7446;SDS011;3765;47.962;7.952;2023-04-12T11:29:57;7.33;;;1.67;;
7446;SDS011;3765;47.962;7.952;2023-04-12T11:32:28;8.50;;;2.40;;
7446;SDS011;3765;47.962;7.952;2023-04-12T11:34:57;13.20;;;1.70;;
7446;SDS011;3765;47.962;7.952;2023-04-12T11:37:25;6.10;;;1.10;;
7446;SDS011;3765;47.962;7.952;2023-04-12T11:39:54;5.70;;;1.20;;
7446;SDS011;3765;47.962;7.952;2023-04-12T11:42:24;7.33;;;1.40;;
7446;SDS011;3765;47.962;7.952;2023-04-12T11:44:54;5.77;;;1.50;;
7446;SDS011;3765;47.962;7.952;2023-04-12T11:47:31;27.47;;;17.07;;
7446;SDS011;3765;47.962;7.952;2023-04-12T11:49:59;63.90;;;38.03;;
7446;SDS011;3765;47.962;7.952;2023-04-12T11:52:28;22.33;;;11.83;;
7446;SDS011;3765;47.962;7.952;2023-04-12T11:54:59;9.10;;;2.73;;
7446;SDS011;3765;47.962;7.952;2023-04-12T11:57:30;41.03;;;17.87;;
7446;SDS011;3765;47.962;7.952;2023-04-12T11:59:59;14.23;;;6.67;;
7446;SDS011;3765;47.962;7.952;2023-04-12T12:02:33;37.00;;;18.53;;
7446;SDS011;3765;47.962;7.952;2023-04-12T12:05:17;18.10;;;4.53;;
7446;SDS011;3765;47.962;7.952;2023-04-12T12:07:47;16.53;;;7.73;;
7446;SDS011;3765;47.962;7.952;2023-04-12T12:10:15;27.63;;;10.80;;
7446;SDS011;3765;47.962;7.952;2023-04-12T12:13:08;11.53;;;4.13;;
7446;SDS011;3765;47.962;7.952;2023-04-12T12:15:37;11.27;;;4.50;;
7446;SDS011;3765;47.962;7.952;2023-04-12T12:18:07;5.67;;;1.30;;
7446;SDS011;3765;47.962;7.952;2023-04-12T12:20:40;6.33;;;1.90;;
7446;SDS011;3765;47.962;7.952;2023-04-12T12:23:09;23.07;;;13.03;;
7446;SDS011;3765;47.962;7.952;2023-04-12T12:25:37;11.70;;;5.50;;
7446;SDS011;3765;47.962;7.952;2023-04-12T12:28:11;24.87;;;13.00;;
7446;SDS011;3765;47.962;7.952;2023-04-12T12:30:39;42.13;;;26.17;;
7446;SDS011;3765;47.962;7.952;2023-04-12T12:33:09;7.47;;;1.80;;
7446;SDS011;3765;47.962;7.952;2023-04-12T12:35:39;6.47;;;1.77;;
7446;SDS011;3765;47.962;7.952;2023-04-12T12:38:08;8.90;;;2.20;;
7446;SDS011;3765;47.962;7.952;2023-04-12T12:40:36;8.80;;;3.90;;
7446;SDS011;3765;47.962;7.952;2023-04-12T12:43:05;9.73;;;2.30;;
7446;SDS011;3765;47.962;7.952;2023-04-12T12:45:34;7.20;;;2.07;;
7446;SDS011;3765;47.962;7.952;2023-04-12T12:48:04;7.03;;;1.83;;
7446;SDS011;3765;47.962;7.952;2023-04-12T12:50:34;10.90;;;3.30;;
7446;SDS011;3765;47.962;7.952;2023-04-12T12:53:02;10.83;;;4.50;;
7446;SDS011;3765;47.962;7.952;2023-04-12T12:55:31;9.67;;;3.30;;
7446;SDS011;3765;47.962;7.952;2023-04-12T12:58:00;14.40;;;7.60;;
7446;SDS011;3765;47.962;7.952;2023-04-12T13:00:33;7.17;;;2.60;;
7446;SDS011;3765;47.962;7.952;2023-04-12T13:03:02;9.37;;;3.00;;
7446;SDS011;3765;47.962;7.952;2023-04-12T13:05:31;9.50;;;3.47;;
7446;SDS011;3765;47.962;7.952;2023-04-12T13:08:01;11.40;;;5.57;;
7446;SDS011;3765;47.962;7.952;2023-04-12T13:10:29;20.73;;;11.33;;
7446;SDS011;3765;47.962;7.952;2023-04-12T13:12:57;10.70;;;4.07;;
7446;SDS011;3765;47.962;7.952;2023-04-12T13:15:27;9.30;;;4.30;;
7446;SDS011;3765;47.962;7.952;2023-04-12T13:17:55;12.17;;;6.40;;
7446;SDS011;3765;47.962;7.952;2023-04-12T13:20:23;11.60;;;5.67;;
7446;SDS011;3765;47.962;7.952;2023-04-12T13:22:54;7.20;;;2.30;;
7446;SDS011;3765;47.962;7.952;2023-04-12T13:25:22;10.50;;;3.60;;
7446;SDS011;3765;47.962;7.952;2023-04-12T13:27:50;8.30;;;2.47;;
7446;SDS011;3765;47.962;7.952;2023-04-12T13:30:19;6.17;;;1.50;;
7446;SDS011;3765;47.962;7.952;2023-04-12T13:32:47;8.23;;;2.97;;
7446;SDS011;3765;47.962;7.952;2023-04-12T13:35:16;14.30;;;7.13;;
7446;SDS011;3765;47.962;7.952;2023-04-12T13:37:44;7.00;;;2.33;;
7446;SDS011;3765;47.962;7.952;2023-04-12T13:40:13;17.93;;;10.50;;
7446;SDS011;3765;47.962;7.952;2023-04-12T13:42:41;11.90;;;6.03;;
7446;SDS011;3765;47.962;7.952;2023-04-12T13:45:10;12.23;;;5.80;;
7446;SDS011;3765;47.962;7.952;2023-04-12T13:47:38;23.83;;;13.50;;
7446;SDS011;3765;47.962;7.952;2023-04-12T13:50:07;8.53;;;1.80;;
7446;SDS011;3765;47.962;7.952;2023-04-12T13:52:35;34.10;;;19.60;;
7446;SDS011;3765;47.962;7.952;2023-04-12T13:55:04;15.23;;;6.77;;
7446;SDS011;3765;47.962;7.952;2023-04-12T13:57:35;13.27;;;5.90;;
7446;SDS011;3765;47.962;7.952;2023-04-12T14:00:03;8.80;;;3.57;;
7446;SDS011;3765;47.962;7.952;2023-04-12T14:02:32;11.20;;;5.40;;
7446;SDS011;3765;47.962;7.952;2023-04-12T14:05:01;15.20;;;6.70;;
7446;SDS011;3765;47.962;7.952;2023-04-12T14:07:29;18.57;;;8.63;;
7446;SDS011;3765;47.962;7.952;2023-04-12T14:09:57;11.60;;;5.47;;
7446;SDS011;3765;47.962;7.952;2023-04-12T14:12:26;8.87;;;3.70;;
7446;SDS011;3765;47.962;7.952;2023-04-12T14:14:55;8.03;;;3.20;;
7446;SDS011;3765;47.962;7.952;2023-04-12T14:17:23;8.00;;;2.33;;
7446;SDS011;3765;47.962;7.952;2023-04-12T14:19:58;12.43;;;7.07;;
7446;SDS011;3765;47.962;7.952;2023-04-12T14:22:26;25.90;;;15.67;;
7446;SDS011;3765;47.962;7.952;2023-04-12T14:24:54;12.20;;;5.00;;
7446;SDS011;3765;47.962;7.952;2023-04-12T14:27:22;29.03;;;16.53;;
7446;SDS011;3765;47.962;7.952;2023-04-12T14:29:50;19.90;;;9.37;;
7446;SDS011;3765;47.962;7.952;2023-04-12T14:32:20;11.27;;;4.30;;
7446;SDS011;3765;47.962;7.952;2023-04-12T14:34:48;12.60;;;6.33;;
7446;SDS011;3765;47.962;7.952;2023-04-12T14:37:17;23.87;;;12.97;;
7446;SDS011;3765;47.962;7.952;2023-04-12T14:39:45;25.07;;;15.27;;
7446;SDS011;3765;47.962;7.952;2023-04-12T14:42:13;8.30;;;3.10;;
7446;SDS011;3765;47.962;7.952;2023-04-12T14:44:41;17.77;;;9.17;;
7446;SDS011;3765;47.962;7.952;2023-04-12T14:47:09;8.60;;;3.33;;
7446;SDS011;3765;47.962;7.952;2023-04-12T14:49:39;16.03;;;9.33;;
7446;SDS011;3765;47.962;7.952;2023-04-12T14:52:07;14.93;;;8.77;;
7446;SDS011;3765;47.962;7.952;2023-04-12T14:54:35;51.47;;;31.27;;
7446;SDS011;3765;47.962;7.952;2023-04-12T14:57:03;11.23;;;5.67;;
7446;SDS011;3765;47.962;7.952;2023-04-12T14:59:32;9.07;;;3.40;;
7446;SDS011;3765;47.962;7.952;2023-04-12T15:02:00;10.20;;;3.90;;
7446;SDS011;3765;47.962;7.952;2023-04-12T15:04:28;5.83;;;1.20;;
7446;SDS011;3765;47.962;7.952;2023-04-12T15:06:58;6.13;;;1.30;;
7446;SDS011;3765;47.962;7.952;2023-04-12T15:09:26;5.60;;;1.40;;
7446;SDS011;3765;47.962;7.952;2023-04-12T15:11:54;10.20;;;4.30;;
7446;SDS011;3765;47.962;7.952;2023-04-12T15:14:26;11.10;;;3.27;;
7446;SDS011;3765;47.962;7.952;2023-04-12T15:16:55;14.33;;;10.47;;
7446;SDS011;3765;47.962;7.952;2023-04-12T15:19:23;6.40;;;2.37;;
7446;SDS011;3765;47.962;7.952;2023-04-12T15:21:51;5.00;;;1.00;;
7446;SDS011;3765;47.962;7.952;2023-04-12T15:24:22;5.60;;;1.30;;
7446;SDS011;3765;47.962;7.952;2023-04-12T15:26:51;9.33;;;1.40;;
7446;SDS011;3765;47.962;7.952;2023-04-12T15:29:19;5.83;;;1.20;;
7446;SDS011;3765;47.962;7.952;2023-04-12T15:31:49;7.37;;;2.40;;
7446;SDS011;3765;47.962;7.952;2023-04-12T15:34:18;6.07;;;1.40;;